createdAt,value
2023-10-30T00:02:02.166Z,9.10
2023-10-30T00:04:30.815Z,9.10
2023-10-30T00:07:00.174Z,9.10
2023-10-30T00:09:30.144Z,9.10
2023-10-30T00:11:58.862Z,9.20
2023-10-30T00:14:27.281Z,9.20
2023-10-30T00:16:56.636Z,9.20
2023-10-30T00:19:25.228Z,9.20
2023-10-30T00:21:53.805Z,9.20
2023-10-30T00:24:25.186Z,9.10
2023-10-30T00:26:55.509Z,9.10
2023-10-30T00:29:23.993Z,9.00
2023-10-30T00:31:52.433Z,8.90
2023-10-30T00:34:20.914Z,8.90
2023-10-30T00:36:49.330Z,8.80
2023-10-30T00:39:17.854Z,8.80
2023-10-30T00:41:46.411Z,8.80
2023-10-30T00:44:16.331Z,8.90
2023-10-30T00:46:45.111Z,8.90
2023-10-30T00:49:13.663Z,9.00
2023-10-30T00:51:42.163Z,9.00
2023-10-30T00:54:10.858Z,9.00
2023-10-30T00:56:39.308Z,9.10
2023-10-30T00:59:07.823Z,9.10
2023-10-30T01:01:37.726Z,9.20
2023-10-30T01:04:08.698Z,9.20
2023-10-30T01:06:37.428Z,9.10
2023-10-30T01:09:06.109Z,9.10
2023-10-30T01:11:34.488Z,9.30
2023-10-30T01:14:02.978Z,9.40
2023-10-30T01:16:31.463Z,9.50
2023-10-30T01:19:01.557Z,9.50
2023-10-30T01:21:29.959Z,9.40
2023-10-30T01:23:58.415Z,9.40
2023-10-30T01:26:26.833Z,9.40
2023-10-30T01:28:55.335Z,9.40
2023-10-30T01:31:28.950Z,9.40
2023-10-30T01:33:57.632Z,9.30
2023-10-30T01:36:28.276Z,9.10
2023-10-30T01:38:56.658Z,9.10
2023-10-30T01:41:25.536Z,9.00
2023-10-30T01:43:53.967Z,9.00
2023-10-30T01:46:22.662Z,9.10
2023-10-30T01:48:51.528Z,9.10
2023-10-30T01:51:21.169Z,9.10
2023-10-30T01:53:52.508Z,9.30
2023-10-30T01:56:21.474Z,9.40
2023-10-30T01:58:49.853Z,9.40
2023-10-30T02:01:18.540Z,9.50
2023-10-30T02:03:47.144Z,9.60
2023-10-30T02:06:15.717Z,9.70
2023-10-30T02:08:44.190Z,9.70
2023-10-30T02:11:14.230Z,9.70
2023-10-30T02:13:42.640Z,9.70
2023-10-30T02:16:11.100Z,9.70
2023-10-30T02:18:39.570Z,9.70
2023-10-30T02:21:08.168Z,9.70
2023-10-30T02:23:36.646Z,9.80
2023-10-30T02:26:06.623Z,9.80
2023-10-30T02:28:35.141Z,9.90
2023-10-30T02:31:02.521Z,9.90
2023-10-30T02:33:31.225Z,10.00
2023-10-30T02:35:59.892Z,10.10
2023-10-30T02:38:28.348Z,10.10
2023-10-30T02:40:56.720Z,10.10
2023-10-30T02:43:26.682Z,10.10
2023-10-30T02:45:55.948Z,10.20
2023-10-30T02:48:24.448Z,10.20
2023-10-30T02:50:52.923Z,10.30
2023-10-30T02:53:21.518Z,10.30
2023-10-30T02:55:49.868Z,10.30
2023-10-30T02:58:18.309Z,10.20
2023-10-30T03:00:48.328Z,10.20
2023-10-30T03:03:17.001Z,10.20
2023-10-30T03:05:47.205Z,10.30
2023-10-30T03:08:15.781Z,10.30
2023-10-30T03:10:44.437Z,10.30
2023-10-30T03:13:12.949Z,10.40
2023-10-30T03:15:41.983Z,10.40
2023-10-30T03:18:11.961Z,10.50
2023-10-30T03:20:40.488Z,10.50
2023-10-30T03:23:08.924Z,10.60
2023-10-30T03:25:37.391Z,10.60
2023-10-30T03:28:06.133Z,10.70
2023-10-30T03:30:36.971Z,10.70
2023-10-30T03:33:05.998Z,10.70
2023-10-30T03:35:39.403Z,10.70
2023-10-30T03:38:08.000Z,10.70
2023-10-30T03:40:37.832Z,10.70
2023-10-30T03:43:06.309Z,10.70
2023-10-30T03:45:34.853Z,10.60
2023-10-30T03:48:03.373Z,10.60
2023-10-30T03:50:31.813Z,10.70
2023-10-30T03:53:01.741Z,10.70
2023-10-30T03:55:30.275Z,10.60
2023-10-30T03:57:58.796Z,10.60
2023-10-30T04:00:27.259Z,10.60
2023-10-30T04:02:55.862Z,10.70
2023-10-30T04:05:24.336Z,10.80
2023-10-30T04:07:52.899Z,10.80
2023-10-30T04:10:22.853Z,10.80
2023-10-30T04:12:51.334Z,10.80
2023-10-30T04:15:20.979Z,10.70
2023-10-30T04:17:49.661Z,10.80
2023-10-30T04:20:18.364Z,10.80
2023-10-30T04:22:50.645Z,10.80
2023-10-30T04:25:20.428Z,10.80
2023-10-30T04:27:50.432Z,10.80
2023-10-30T04:30:19.060Z,10.80
2023-10-30T04:32:47.685Z,10.80
2023-10-30T04:35:16.321Z,10.70
2023-10-30T04:37:44.874Z,10.70
2023-10-30T04:40:13.675Z,10.60
2023-10-30T04:42:42.208Z,10.50
2023-10-30T04:45:12.692Z,10.40
2023-10-30T04:47:41.162Z,10.40
2023-10-30T04:50:10.100Z,10.30
2023-10-30T04:52:38.853Z,10.20
2023-10-30T04:55:08.474Z,10.10
2023-10-30T04:57:36.921Z,10.10
2023-10-30T05:00:07.868Z,10.00
2023-10-30T05:02:40.641Z,9.90
2023-10-30T05:05:09.893Z,9.90
2023-10-30T05:07:38.865Z,9.90
2023-10-30T05:10:07.796Z,9.80
2023-10-30T05:12:36.335Z,9.80
2023-10-30T05:15:12.945Z,9.90
2023-10-30T05:17:43.100Z,9.90
2023-10-30T05:20:13.675Z,9.80
2023-10-30T05:22:42.443Z,9.80
2023-10-30T05:25:11.118Z,9.70
2023-10-30T05:27:39.532Z,9.60
2023-10-30T05:30:09.386Z,9.50
2023-10-30T05:32:37.741Z,9.40
2023-10-30T05:35:08.184Z,9.40
2023-10-30T05:37:36.616Z,9.40
2023-10-30T05:40:07.020Z,9.40
2023-10-30T05:42:35.761Z,9.40
2023-10-30T05:45:04.620Z,9.50
2023-10-30T05:47:33.108Z,9.50
2023-10-30T05:50:01.497Z,9.50
2023-10-30T05:52:31.193Z,9.60
2023-10-30T05:54:59.649Z,9.70
2023-10-30T05:57:28.076Z,9.80
2023-10-30T05:59:56.524Z,9.80
2023-10-30T06:02:24.857Z,9.80
2023-10-30T06:04:53.308Z,9.80
2023-10-30T06:07:21.790Z,9.70
2023-10-30T06:09:51.968Z,9.60
2023-10-30T06:12:20.452Z,9.60
2023-10-30T06:14:49.048Z,9.60
2023-10-30T06:17:17.529Z,9.60
2023-10-30T06:19:45.813Z,9.60
2023-10-30T06:22:14.108Z,9.60
2023-10-30T06:24:42.428Z,9.60
2023-10-30T06:27:12.145Z,9.50
2023-10-30T06:29:40.501Z,9.40
2023-10-30T06:32:10.631Z,9.40
2023-10-30T06:34:39.675Z,9.40
2023-10-30T06:37:08.056Z,9.40
2023-10-30T06:39:36.507Z,9.40
2023-10-30T06:42:05.169Z,9.40
2023-10-30T06:44:34.864Z,9.50
2023-10-30T06:47:03.493Z,9.60
2023-10-30T06:49:32.025Z,9.70
2023-10-30T06:52:01.383Z,9.70
2023-10-30T06:54:29.828Z,9.80
2023-10-30T06:56:58.826Z,9.80
2023-10-30T06:59:28.383Z,9.90
2023-10-30T07:01:58.438Z,9.90
2023-10-30T07:04:26.898Z,10.00
2023-10-30T07:06:55.742Z,10.00
2023-10-30T07:09:24.127Z,10.10
2023-10-30T07:11:52.680Z,10.10
2023-10-30T07:14:21.052Z,10.10
2023-10-30T07:17:03.100Z,10.20
2023-10-30T07:19:34.061Z,10.20
2023-10-30T07:22:03.805Z,10.30
2023-10-30T07:24:32.325Z,10.40
2023-10-30T07:27:07.001Z,10.40
2023-10-30T07:29:36.263Z,10.50
2023-10-30T07:32:04.646Z,10.60
2023-10-30T07:34:34.442Z,10.70
2023-10-30T07:37:02.765Z,10.70
2023-10-30T07:39:31.084Z,10.80
2023-10-30T07:42:02.367Z,10.70
2023-10-30T07:44:30.958Z,10.70
2023-10-30T07:46:59.365Z,10.70
2023-10-30T07:49:27.785Z,10.80
2023-10-30T07:51:57.577Z,10.80
2023-10-30T07:54:27.020Z,10.90
2023-10-30T07:56:55.348Z,10.90
2023-10-30T07:59:23.704Z,11.10
2023-10-30T08:01:52.484Z,11.20
2023-10-30T08:04:21.011Z,11.40
2023-10-30T08:06:49.542Z,11.60
2023-10-30T08:09:19.397Z,11.70
2023-10-30T08:11:47.807Z,11.80
2023-10-30T08:14:16.156Z,11.80
2023-10-30T08:16:44.637Z,12.00
2023-10-30T08:19:12.945Z,12.20
2023-10-30T08:21:41.276Z,12.40
2023-10-30T08:24:10.691Z,12.60
2023-10-30T08:26:40.464Z,12.70
2023-10-30T08:29:08.764Z,12.60
2023-10-30T08:31:37.106Z,12.50
2023-10-30T08:34:05.507Z,12.30
2023-10-30T08:36:34.015Z,12.20
2023-10-30T08:39:02.361Z,12.10
2023-10-30T08:41:30.889Z,12.70
2023-10-30T08:44:00.634Z,13.90
2023-10-30T08:46:29.462Z,15.10
2023-10-30T08:48:58.742Z,15.80
2023-10-30T08:51:29.810Z,15.60
2023-10-30T08:53:58.203Z,15.00
2023-10-30T08:56:26.497Z,14.50
2023-10-30T08:58:54.838Z,14.20
2023-10-30T09:01:24.526Z,14.00
2023-10-30T09:03:54.158Z,14.00
2023-10-30T09:06:22.659Z,13.90
2023-10-30T09:08:51.038Z,14.00
2023-10-30T09:11:19.343Z,14.00
2023-10-30T09:13:47.892Z,14.10
2023-10-30T09:16:16.307Z,14.30
2023-10-30T09:18:46.276Z,14.60
2023-10-30T09:21:14.578Z,15.10
2023-10-30T09:23:44.554Z,15.90
2023-10-30T09:26:12.857Z,16.80
2023-10-30T09:28:41.162Z,17.30
2023-10-30T09:31:09.425Z,17.80
2023-10-30T09:33:38.388Z,17.70
2023-10-30T09:36:09.448Z,17.20
2023-10-30T09:38:37.757Z,16.50
2023-10-30T09:41:08.169Z,16.10
2023-10-30T09:43:39.018Z,15.60
2023-10-30T09:46:08.252Z,15.30
2023-10-30T09:48:39.706Z,15.10
2023-10-30T09:51:12.579Z,14.90
2023-10-30T09:53:43.760Z,14.70
2023-10-30T09:56:12.475Z,14.60
2023-10-30T09:58:41.151Z,14.40
2023-10-30T10:01:09.550Z,14.30
2023-10-30T10:03:38.307Z,14.30
2023-10-30T10:06:07.226Z,14.30
2023-10-30T10:08:40.282Z,14.30
2023-10-30T10:11:08.562Z,14.30
2023-10-30T10:13:44.640Z,14.30
2023-10-30T10:16:30.260Z,14.30
2023-10-30T10:18:58.829Z,14.40
2023-10-30T10:21:27.532Z,14.40
2023-10-30T10:23:57.604Z,14.50
2023-10-30T10:26:31.973Z,14.50
2023-10-30T10:29:01.346Z,14.60
2023-10-30T10:31:29.735Z,14.70
2023-10-30T10:33:59.621Z,14.80
2023-10-30T10:36:33.704Z,14.90
2023-10-30T10:39:05.023Z,15.10
2023-10-30T10:41:33.584Z,15.40
2023-10-30T10:44:02.550Z,15.70
2023-10-30T10:46:30.999Z,16.00
2023-10-30T10:48:59.369Z,16.30
2023-10-30T10:51:40.056Z,16.30
2023-10-30T10:54:25.873Z,16.20
2023-10-30T10:56:56.043Z,16.10
2023-10-30T10:59:29.331Z,16.00
2023-10-30T11:01:59.172Z,15.90
2023-10-30T11:04:30.302Z,16.00
2023-10-30T11:07:07.097Z,16.00
2023-10-30T11:09:42.867Z,16.10
2023-10-30T11:12:21.481Z,16.10
2023-10-30T11:14:54.878Z,16.10
2023-10-30T11:17:23.169Z,16.10
2023-10-30T11:19:51.617Z,16.20
2023-10-30T11:22:41.447Z,16.20
2023-10-30T11:25:46.419Z,16.20
2023-10-30T11:28:14.812Z,16.20
2023-10-30T11:30:44.312Z,16.20
2023-10-30T11:33:31.681Z,16.30
2023-10-30T11:36:26.681Z,16.40
2023-10-30T11:39:10.690Z,16.50
2023-10-30T11:41:44.276Z,16.70
2023-10-30T11:44:13.603Z,16.80
2023-10-30T11:46:43.019Z,16.80
2023-10-30T11:49:13.315Z,16.80
2023-10-30T11:51:47.500Z,16.80
2023-10-30T11:54:24.163Z,16.70
2023-10-30T11:56:54.465Z,16.50
2023-10-30T11:59:22.771Z,16.40
2023-10-30T12:01:53.601Z,16.30
2023-10-30T12:04:25.960Z,16.20
2023-10-30T12:06:54.692Z,16.10
2023-10-30T12:09:24.302Z,16.10
2023-10-30T12:11:54.606Z,16.10
2023-10-30T12:14:23.175Z,16.10
2023-10-30T12:16:52.008Z,16.10
2023-10-30T12:19:24.576Z,16.20
2023-10-30T12:21:54.582Z,16.20
2023-10-30T12:24:26.234Z,16.20
2023-10-30T12:26:56.047Z,16.20
2023-10-30T12:29:26.086Z,16.30
2023-10-30T12:32:04.842Z,16.30
2023-10-30T12:34:37.634Z,16.30
2023-10-30T12:37:24.817Z,16.30
2023-10-30T12:40:03.446Z,16.30
2023-10-30T12:42:34.900Z,16.30
2023-10-30T12:45:08.034Z,16.20
2023-10-30T12:47:36.770Z,16.10
2023-10-30T12:50:05.663Z,16.10
2023-10-30T12:52:34.582Z,16.00
2023-10-30T12:55:03.354Z,16.00
2023-10-30T12:57:33.773Z,16.00
2023-10-30T13:00:02.371Z,16.00
2023-10-30T13:02:30.979Z,15.90
2023-10-30T13:04:59.763Z,15.90
2023-10-30T13:07:31.299Z,15.90
2023-10-30T13:09:59.643Z,15.80
2023-10-30T13:12:27.984Z,15.70
2023-10-30T13:14:57.757Z,15.70
2023-10-30T13:17:26.132Z,15.60
2023-10-30T13:19:57.643Z,15.60
2023-10-30T13:22:25.969Z,15.60
2023-10-30T13:24:56.872Z,15.50
2023-10-30T13:27:25.717Z,15.50
2023-10-30T13:29:54.092Z,15.50
2023-10-30T13:32:23.860Z,15.40
2023-10-30T13:34:52.230Z,15.30
2023-10-30T13:37:20.653Z,15.30
2023-10-30T13:39:49.258Z,15.30
2023-10-30T13:42:17.979Z,15.30
2023-10-30T13:44:46.260Z,15.20
2023-10-30T13:47:14.582Z,15.20
2023-10-30T13:49:44.295Z,15.10
2023-10-30T13:52:12.615Z,15.00
2023-10-30T13:54:41.050Z,15.00
2023-10-30T13:57:09.476Z,14.90
2023-10-30T13:59:40.516Z,14.80
2023-10-30T14:02:08.861Z,14.70
2023-10-30T14:04:39.093Z,14.60
2023-10-30T14:07:09.365Z,14.50
2023-10-30T14:09:37.953Z,14.50
2023-10-30T14:12:06.800Z,14.50
2023-10-30T14:14:35.128Z,14.50
2023-10-30T14:17:03.488Z,14.50
2023-10-30T14:19:31.852Z,14.40
2023-10-30T14:22:00.242Z,14.40
2023-10-30T14:24:29.981Z,14.40
2023-10-30T14:26:58.302Z,14.40
2023-10-30T14:29:26.561Z,14.30
2023-10-30T14:31:54.916Z,14.20
2023-10-30T14:34:23.276Z,14.10
2023-10-30T14:36:51.876Z,14.10
2023-10-30T14:39:21.032Z,13.90
2023-10-30T14:41:50.843Z,13.90
2023-10-30T14:44:19.166Z,13.90
2023-10-30T14:46:47.534Z,13.90
2023-10-30T14:49:16.553Z,13.80
2023-10-30T14:51:45.270Z,13.70
2023-10-30T14:54:16.757Z,13.60
2023-10-30T14:56:45.063Z,13.60
2023-10-30T14:59:14.905Z,13.50
2023-10-30T15:01:43.858Z,13.30
2023-10-30T15:04:12.276Z,13.20
2023-10-30T15:06:40.724Z,13.10
2023-10-30T15:09:11.313Z,13.00
2023-10-30T15:11:39.576Z,12.80
2023-10-30T15:14:07.868Z,12.70
2023-10-30T15:16:37.692Z,12.50
2023-10-30T15:19:06.199Z,12.40
2023-10-30T15:21:34.546Z,12.30
2023-10-30T15:24:02.838Z,12.20
2023-10-30T15:26:33.968Z,12.10
2023-10-30T15:29:02.272Z,12.00
2023-10-30T15:31:30.730Z,11.90
2023-10-30T15:34:00.556Z,11.80
2023-10-30T15:36:29.306Z,11.80
2023-10-30T15:38:57.597Z,11.80
2023-10-30T15:41:29.733Z,11.90
2023-10-30T15:43:58.062Z,12.10
2023-10-30T15:46:34.644Z,12.20
2023-10-30T15:49:09.208Z,12.40
2023-10-30T15:51:37.608Z,12.60
2023-10-30T15:59:12.918Z,12.70
2023-10-30T16:01:41.525Z,12.70
2023-10-30T16:04:11.528Z,12.80
2023-10-30T16:06:46.912Z,12.80
2023-10-30T16:09:15.299Z,12.70
2023-10-30T16:14:16.937Z,12.90
2023-10-30T16:19:22.590Z,13.00
2023-10-30T16:21:53.818Z,13.10
2023-10-30T16:24:28.021Z,13.10
2023-10-30T16:26:59.128Z,13.00
2023-10-30T16:29:27.574Z,13.00
2023-10-30T16:31:55.934Z,13.00
2023-10-30T16:34:25.657Z,13.00
2023-10-30T16:36:54.020Z,13.00
2023-10-30T16:39:22.301Z,13.00
2023-10-30T16:41:50.564Z,13.00
2023-10-30T16:44:18.844Z,13.10
2023-10-30T16:46:47.272Z,13.00
2023-10-30T16:49:15.918Z,13.00
2023-10-30T16:51:48.687Z,13.10
2023-10-30T16:54:17.058Z,13.20
2023-10-30T16:56:45.389Z,13.20
2023-10-30T16:59:13.747Z,13.20
2023-10-30T17:01:42.222Z,13.20
2023-10-30T17:04:10.607Z,13.20
2023-10-30T17:06:38.895Z,13.20
2023-10-30T17:09:08.642Z,13.20
2023-10-30T17:11:36.943Z,13.30
2023-10-30T17:14:05.226Z,13.30
2023-10-30T17:16:33.694Z,13.20
2023-10-30T17:19:02.022Z,13.20
2023-10-30T17:21:30.308Z,13.30
2023-10-30T17:24:01.510Z,13.30
2023-10-30T17:26:31.210Z,13.30
2023-10-30T17:28:59.539Z,13.30
2023-10-30T17:31:27.947Z,13.20
2023-10-30T17:33:56.279Z,13.10
2023-10-30T17:36:27.567Z,13.10
2023-10-30T17:39:04.751Z,13.10
2023-10-30T17:41:34.444Z,13.00
2023-10-30T17:44:02.785Z,12.90
2023-10-30T17:46:32.274Z,13.00
2023-10-30T17:49:00.722Z,13.10
2023-10-30T17:51:29.103Z,13.20
2023-10-30T17:53:57.415Z,13.30
2023-10-30T17:56:34.289Z,13.30
2023-10-30T17:59:05.996Z,13.40
2023-10-30T18:01:34.568Z,13.40
2023-10-30T18:04:02.924Z,13.40
2023-10-30T18:06:31.235Z,13.50
2023-10-30T18:08:59.576Z,13.50
2023-10-30T18:11:28.152Z,13.60
2023-10-30T18:13:56.474Z,13.60
2023-10-30T18:16:26.360Z,13.60
2023-10-30T18:18:54.785Z,13.60
2023-10-30T18:21:23.129Z,13.60
2023-10-30T18:23:51.498Z,13.60
2023-10-30T18:26:24.410Z,13.60
2023-10-30T18:28:52.790Z,13.70
2023-10-30T18:31:25.763Z,13.70
2023-10-30T18:33:54.146Z,13.70
2023-10-30T18:36:22.465Z,13.70
2023-10-30T18:38:50.798Z,13.70
2023-10-30T18:41:19.450Z,13.70
2023-10-30T18:43:50.847Z,13.80
2023-10-30T18:46:20.690Z,13.80
2023-10-30T18:48:53.273Z,13.90
2023-10-30T18:51:22.056Z,13.80
2023-10-30T18:53:52.012Z,13.80
2023-10-30T18:56:20.440Z,13.80
2023-10-30T18:58:49.793Z,13.90
2023-10-30T19:01:21.169Z,13.90
2023-10-30T19:03:49.850Z,13.80
2023-10-30T19:06:22.729Z,13.80
2023-10-30T19:09:08.084Z,13.80
2023-10-30T19:11:37.518Z,13.80
2023-10-30T19:14:06.846Z,13.80
2023-10-30T19:16:38.266Z,13.80
2023-10-30T19:19:06.815Z,13.80
2023-10-30T19:21:36.601Z,13.80
2023-10-30T19:24:05.116Z,13.70
2023-10-30T19:26:33.453Z,13.70
2023-10-30T19:29:01.833Z,13.70
2023-10-30T19:31:30.245Z,13.70
2023-10-30T19:34:04.695Z,13.80
2023-10-30T19:36:33.058Z,13.80
2023-10-30T19:39:05.368Z,13.80
2023-10-30T19:41:34.371Z,13.80
2023-10-30T19:44:03.904Z,13.90
2023-10-30T19:46:36.682Z,13.90
2023-10-30T19:49:09.432Z,13.90
2023-10-30T19:51:49.539Z,13.90
2023-10-30T19:54:25.588Z,13.90
2023-10-30T19:56:53.987Z,13.90
2023-10-30T19:59:22.290Z,14.00
2023-10-30T20:01:54.971Z,13.90
2023-10-30T20:04:23.523Z,13.90
2023-10-30T20:06:51.839Z,13.90
2023-10-30T20:09:20.166Z,13.90
2023-10-30T20:11:50.101Z,13.80
2023-10-30T20:14:18.388Z,13.80
2023-10-30T20:16:47.776Z,13.90
2023-10-30T20:19:16.270Z,13.90
2023-10-30T20:21:47.186Z,13.90
2023-10-30T20:24:15.540Z,13.90
2023-10-30T20:26:43.859Z,13.90
2023-10-30T20:29:13.644Z,13.90
2023-10-30T20:31:44.730Z,13.80
2023-10-30T20:34:13.092Z,13.80
2023-10-30T20:36:41.496Z,13.80
2023-10-30T20:39:09.797Z,13.70
2023-10-30T20:41:38.266Z,13.70
2023-10-30T20:44:07.117Z,13.60
2023-10-30T20:46:47.024Z,13.60
2023-10-30T20:49:15.453Z,13.60
2023-10-30T20:51:43.855Z,13.60
2023-10-30T20:54:15.195Z,13.60
2023-10-30T20:56:43.552Z,13.60
2023-10-30T20:59:12.434Z,13.70
2023-10-30T21:01:48.348Z,13.70
2023-10-30T21:04:16.699Z,13.70
2023-10-30T21:06:45.000Z,13.70
2023-10-30T21:09:13.280Z,13.70
2023-10-30T21:11:41.610Z,13.70
2023-10-30T21:14:10.290Z,13.70
2023-10-30T21:16:38.781Z,13.70
2023-10-30T21:19:08.526Z,13.80
2023-10-30T21:21:36.856Z,13.80
2023-10-30T21:24:06.030Z,13.80
2023-10-30T21:26:34.348Z,13.80
2023-10-30T21:29:06.186Z,13.70
2023-10-30T21:31:37.393Z,13.70
2023-10-30T21:34:05.860Z,13.80
2023-10-30T21:36:35.578Z,13.80
2023-10-30T21:39:04.056Z,13.80
2023-10-30T21:41:32.425Z,13.80
2023-10-30T21:44:01.823Z,13.90
2023-10-30T21:46:31.768Z,14.00
2023-10-30T21:49:00.469Z,14.00
2023-10-30T21:51:29.018Z,14.10
2023-10-30T21:54:00.684Z,14.10
2023-10-30T21:56:29.136Z,14.00
2023-10-30T21:58:57.527Z,14.10
2023-10-30T22:01:29.084Z,14.20
2023-10-30T22:03:57.722Z,14.20
2023-10-30T22:06:29.227Z,14.20
2023-10-30T22:08:58.993Z,14.20
2023-10-30T22:11:27.276Z,14.30
2023-10-30T22:13:55.598Z,14.30
2023-10-30T22:16:24.013Z,14.20
2023-10-30T22:18:52.317Z,14.20
2023-10-30T22:21:20.630Z,14.20
2023-10-30T22:23:48.953Z,14.20
2023-10-30T22:26:18.738Z,14.20
2023-10-30T22:28:48.227Z,14.30
2023-10-30T22:31:16.836Z,14.20
2023-10-30T22:33:45.186Z,14.20
2023-10-30T22:36:16.301Z,14.10
2023-10-30T22:38:44.626Z,14.20
2023-10-30T22:41:13.245Z,14.20
2023-10-30T22:43:45.934Z,14.20
2023-10-30T22:46:14.362Z,14.20
2023-10-30T22:48:42.687Z,14.10
2023-10-30T22:51:11.005Z,14.10
2023-10-30T22:53:39.294Z,14.10
2023-10-30T22:56:08.173Z,14.10
2023-10-30T22:58:36.595Z,14.10
2023-10-30T23:01:06.466Z,14.00
2023-10-30T23:03:34.980Z,14.00
2023-10-30T23:06:03.667Z,13.90
2023-10-30T23:08:32.077Z,13.90
2023-10-30T23:11:00.419Z,13.80
2023-10-30T23:13:28.763Z,13.90
2023-10-30T23:15:57.206Z,13.90
2023-10-30T23:18:26.905Z,13.90
2023-10-30T23:20:55.182Z,14.00
2023-10-30T23:23:23.487Z,14.10
2023-10-30T23:25:52.940Z,14.10
2023-10-30T23:28:21.713Z,14.20
2023-10-30T23:30:50.178Z,14.20
2023-10-30T23:33:18.658Z,14.20
2023-10-30T23:35:48.463Z,14.10
2023-10-30T23:38:16.851Z,14.10
2023-10-30T23:40:45.334Z,14.10
2023-10-30T23:43:13.691Z,14.10
2023-10-30T23:45:41.995Z,14.10
2023-10-30T23:48:10.509Z,14.10
2023-10-30T23:50:38.847Z,14.20
2023-10-30T23:53:08.620Z,14.30
2023-10-30T23:55:37.002Z,14.30
2023-10-30T23:58:05.373Z,14.30
